CheckWX is a tool to help pilots better visualize weather data.  It is not intended as a substitute for an official pre-flight weather briefing.

15:08:33 UTC

EHGR METAR
Gilze Rijen Air Base Airport
Breda, The Netherlands
Current

14 mins ago

EHGR 141455Z AUTO 23014G31KT 190V270 9999 SCT021 BKN025 OVC029 08/04 Q0991 WHT
Observed
Dec-14 @ 14:55 UTC
Wind
  • 230° at 14 KTS
  • Gusting to 31 KTS
Visibility
10,000+ meters
Flight Rules
MVFR
Cloud Levels
  • Scattered at 2,100' AGL
  • Broken at 2,500' AGL
  • Overcast at 2,900' AGL
Temperature
C / 46°F
Dewpoint
C / 39°F
Humidity
76%
Altimeter
29.26" Hg
Pressure
990.92 hPa
Previous

44 mins ago

EHGR 141425Z AUTO 21015G26KT 170V260 9999 FEW017 BKN038 BKN100 08/05 Q0990 BLU
Observed
Dec-14 @ 14:25 UTC
Wind
  • 210° at 15 KTS
  • Gusting to 26 KTS
Visibility
10,000+ meters
Flight Rules
VFR
Cloud Levels
  • Few at 1,700' AGL
  • Broken at 3,800' AGL
  • Broken at 10,000' AGL
Temperature
C / 46°F
Dewpoint
C / 41°F
Humidity
82%
Altimeter
29.23" Hg
Pressure
989.92 hPa
Previous

59 mins ago

EHGR 141410Z AUTO 21017G27KT 170V260 9999 FEW015 SCT037 OVC095 07/05 Q0990 BLU
Observed
Dec-14 @ 14:10 UTC
Wind
  • 210° at 17 KTS
  • Gusting to 27 KTS
Visibility
10,000+ meters
Flight Rules
VFR
Cloud Levels
  • Few at 1,500' AGL
  • Scattered at 3,700' AGL
  • Overcast at 9,500' AGL
Temperature
C / 45°F
Dewpoint
C / 41°F
Humidity
87%
Altimeter
29.23" Hg
Pressure
989.92 hPa